createdAt,value
2023-07-22T00:02:01.062Z,17.02
2023-07-22T00:04:31.361Z,17.02
2023-07-22T00:07:01.554Z,16.96
2023-07-22T00:09:31.787Z,16.95
2023-07-22T00:12:01.960Z,16.88
2023-07-22T00:14:32.153Z,16.90
2023-07-22T00:17:05.011Z,16.87
2023-07-22T00:19:35.359Z,16.92
2023-07-22T00:22:05.535Z,16.91
2023-07-22T00:24:35.756Z,16.84
2023-07-22T00:27:09.050Z,16.93
2023-07-22T00:29:39.457Z,16.83
2023-07-22T00:32:12.819Z,16.86
2023-07-22T00:34:44.210Z,16.80
2023-07-22T00:37:14.372Z,16.82
2023-07-22T00:39:44.942Z,16.78
2023-07-22T00:42:15.132Z,16.87
2023-07-22T00:44:45.337Z,16.73
2023-07-22T00:47:18.800Z,16.71
2023-07-22T00:49:48.891Z,16.72
2023-07-22T00:52:19.210Z,16.72
2023-07-22T00:54:49.636Z,16.75
2023-07-22T00:57:23.473Z,16.83
2023-07-22T00:59:53.627Z,16.82
2023-07-22T01:02:27.349Z,16.76
2023-07-22T01:04:57.564Z,16.65
2023-07-22T01:07:27.937Z,16.58
2023-07-22T01:10:01.596Z,16.59
2023-07-22T01:12:31.831Z,16.62
2023-07-22T01:15:04.922Z,16.57
2023-07-22T01:17:39.176Z,16.55
2023-07-22T01:20:11.293Z,16.56
2023-07-22T01:22:43.060Z,16.58
2023-07-22T01:25:16.089Z,16.52
2023-07-22T01:27:47.612Z,16.53
2023-07-22T01:30:17.972Z,16.51
2023-07-22T01:32:48.280Z,16.44
2023-07-22T01:35:18.576Z,16.36
2023-07-22T01:37:48.712Z,16.35
2023-07-22T01:40:22.145Z,16.35
2023-07-22T01:42:51.920Z,16.31
2023-07-22T01:45:22.637Z,16.20
2023-07-22T01:47:52.912Z,16.18
2023-07-22T01:50:23.192Z,16.21
2023-07-22T01:52:53.407Z,16.25
2023-07-22T01:55:26.230Z,16.15
2023-07-22T01:57:56.368Z,16.17
2023-07-22T02:00:28.267Z,16.15
2023-07-22T02:02:58.573Z,16.19
2023-07-22T02:05:30.186Z,16.26
2023-07-22T02:08:00.581Z,16.28
2023-07-22T02:10:33.349Z,16.29
2023-07-22T02:13:04.493Z,16.26
2023-07-22T02:15:36.094Z,16.26
2023-07-22T02:18:06.555Z,16.21
2023-07-22T02:20:36.761Z,16.17
2023-07-22T02:23:08.680Z,16.18
2023-07-22T02:25:42.769Z,16.16
2023-07-22T02:28:12.951Z,16.19
2023-07-22T02:30:43.464Z,16.25
2023-07-22T02:33:13.773Z,16.22
2023-07-22T02:35:45.535Z,16.24
2023-07-22T02:38:16.899Z,16.17
2023-07-22T02:40:51.202Z,16.13
2023-07-22T02:43:21.397Z,16.17
2023-07-22T02:45:51.849Z,16.15
2023-07-22T02:48:22.072Z,16.18
2023-07-22T02:50:53.279Z,16.14
2023-07-22T02:53:23.585Z,16.10
2023-07-22T02:55:56.403Z,16.08
2023-07-22T02:58:26.709Z,16.12
2023-07-22T03:00:59.155Z,16.17
2023-07-22T03:03:29.784Z,16.08
2023-07-22T03:06:00.175Z,16.07
2023-07-22T03:08:30.439Z,16.06
2023-07-22T03:11:03.229Z,16.08
2023-07-22T03:13:36.536Z,16.09
2023-07-22T03:16:07.571Z,16.05
2023-07-22T03:18:37.751Z,16.02
2023-07-22T03:21:08.039Z,16.07
2023-07-22T03:23:38.263Z,16.06
2023-07-22T03:26:11.210Z,16.09
2023-07-22T03:28:42.766Z,16.06
2023-07-22T03:31:13.168Z,16.09
2023-07-22T03:33:47.346Z,16.25
2023-07-22T03:36:17.475Z,16.20
2023-07-22T03:38:47.650Z,16.20
2023-07-22T03:41:20.532Z,16.18
2023-07-22T03:43:50.801Z,16.25
2023-07-22T03:46:21.103Z,16.29
2023-07-22T03:48:51.494Z,16.32
2023-07-22T03:51:21.747Z,16.32
2023-07-22T03:53:51.979Z,16.37
2023-07-22T03:56:25.616Z,16.39
2023-07-22T03:58:56.718Z,16.37
2023-07-22T04:01:26.924Z,16.49
2023-07-22T04:03:57.230Z,16.44
2023-07-22T04:06:27.568Z,16.49
2023-07-22T04:08:57.945Z,16.55
2023-07-22T04:11:30.976Z,16.54
2023-07-22T04:14:01.105Z,16.58
2023-07-22T04:16:31.904Z,16.61
2023-07-22T04:19:02.586Z,16.63
2023-07-22T04:21:32.824Z,16.70
2023-07-22T04:24:03.453Z,16.80
2023-07-22T04:26:37.482Z,16.86
2023-07-22T04:29:07.748Z,17.03
2023-07-22T04:31:40.544Z,17.19
2023-07-22T04:34:12.760Z,17.35
2023-07-22T04:36:42.986Z,17.51
2023-07-22T04:39:13.369Z,17.64
2023-07-22T04:41:46.213Z,17.85
2023-07-22T04:44:16.481Z,17.97
2023-07-22T04:46:47.086Z,18.09
2023-07-22T04:49:19.643Z,18.31
2023-07-22T04:51:51.519Z,18.41
2023-07-22T04:54:22.182Z,18.68
2023-07-22T04:56:55.029Z,18.84
2023-07-22T04:59:25.279Z,19.17
2023-07-22T05:01:56.129Z,19.31
2023-07-22T05:04:26.357Z,19.44
2023-07-22T05:06:56.583Z,19.56
2023-07-22T05:09:26.761Z,19.68
2023-07-22T05:11:59.624Z,19.77
2023-07-22T05:14:29.818Z,19.91
2023-07-22T05:17:00.001Z,20.15
2023-07-22T05:19:30.239Z,19.82
2023-07-22T05:22:00.479Z,19.84
2023-07-22T05:24:30.821Z,20.07
2023-07-22T05:27:09.588Z,20.02
2023-07-22T05:29:40.325Z,20.26
2023-07-22T05:32:27.459Z,20.58
2023-07-22T05:35:02.895Z,20.65
2023-07-22T05:37:33.293Z,20.44
2023-07-22T05:40:04.233Z,20.45
2023-07-22T05:42:36.976Z,20.50
2023-07-22T05:45:08.695Z,20.57
2023-07-22T05:47:39.126Z,20.49
2023-07-22T05:50:10.810Z,20.91
2023-07-22T05:52:40.997Z,21.18
2023-07-22T05:55:13.993Z,20.84
2023-07-22T05:57:46.875Z,20.91
2023-07-22T06:00:18.779Z,21.42
2023-07-22T06:02:49.954Z,21.37
2023-07-22T06:05:20.480Z,21.44
2023-07-22T06:07:50.587Z,21.66
2023-07-22T06:10:21.406Z,21.68
2023-07-22T06:12:54.385Z,21.62
2023-07-22T06:15:25.009Z,21.26
2023-07-22T06:17:55.316Z,20.88
2023-07-22T06:20:25.799Z,20.83
2023-07-22T06:22:56.046Z,21.40
2023-07-22T06:25:26.584Z,21.08
2023-07-22T06:27:59.435Z,21.28
2023-07-22T06:30:29.886Z,20.80
2023-07-22T06:33:00.454Z,21.13
2023-07-22T06:35:30.693Z,20.81
2023-07-22T06:38:00.860Z,21.55
2023-07-22T06:40:31.073Z,21.19
2023-07-22T06:43:03.954Z,21.27
2023-07-22T06:45:35.454Z,22.10
2023-07-22T06:48:05.696Z,21.97
2023-07-22T06:50:35.936Z,21.91
2023-07-22T06:53:06.251Z,22.39
2023-07-22T06:55:36.488Z,22.37
2023-07-22T06:58:09.210Z,21.97
2023-07-22T07:00:39.721Z,22.44
2023-07-22T07:03:09.948Z,22.50
2023-07-22T07:05:42.713Z,22.60
2023-07-22T07:08:14.308Z,22.78
2023-07-22T07:10:44.462Z,22.55
2023-07-22T07:13:17.287Z,22.95
2023-07-22T07:15:52.078Z,23.21
2023-07-22T07:18:22.269Z,23.04
2023-07-22T07:20:52.462Z,22.79
2023-07-22T07:23:22.974Z,23.20
2023-07-22T07:25:55.089Z,23.10
2023-07-22T07:28:29.287Z,22.87
2023-07-22T07:30:59.476Z,23.30
2023-07-22T07:33:29.641Z,22.88
2023-07-22T07:36:00.021Z,23.30
2023-07-22T07:38:30.349Z,23.66
2023-07-22T07:41:02.403Z,23.39
2023-07-22T07:43:35.212Z,23.28
2023-07-22T07:46:21.776Z,23.09
2023-07-22T07:48:53.750Z,23.72
2023-07-22T07:51:25.341Z,23.28
2023-07-22T07:53:55.799Z,23.42
2023-07-22T07:56:26.561Z,23.09
2023-07-22T07:58:59.630Z,23.90
2023-07-22T08:01:29.805Z,24.03
2023-07-22T08:04:00.084Z,23.42
2023-07-22T08:06:30.403Z,23.64
2023-07-22T08:09:00.607Z,23.83
2023-07-22T08:11:30.860Z,23.77
2023-07-22T08:14:03.696Z,23.36
2023-07-22T08:16:35.954Z,23.99
2023-07-22T08:19:08.489Z,24.31
2023-07-22T08:21:39.799Z,24.68
2023-07-22T08:24:10.287Z,24.82
2023-07-22T08:26:40.548Z,24.77
2023-07-22T08:29:13.353Z,24.35
2023-07-22T08:31:43.501Z,24.54
2023-07-22T08:34:13.640Z,24.63
2023-07-22T08:36:43.834Z,25.10
2023-07-22T08:39:14.148Z,24.97
2023-07-22T08:41:49.665Z,24.80
2023-07-22T08:44:25.249Z,25.17
2023-07-22T08:47:00.052Z,24.43
2023-07-22T08:49:31.637Z,25.04
2023-07-22T08:52:04.695Z,24.43
2023-07-22T08:54:35.198Z,24.92
2023-07-22T08:57:05.568Z,25.76
2023-07-22T08:59:39.214Z,25.09
2023-07-22T09:02:14.421Z,24.74
2023-07-22T09:04:45.391Z,25.13
2023-07-22T09:07:16.472Z,25.30
2023-07-22T09:09:48.639Z,25.73
2023-07-22T09:12:19.082Z,25.81
2023-07-22T09:14:53.929Z,26.39
2023-07-22T09:17:24.221Z,26.29
2023-07-22T09:19:57.386Z,26.23
2023-07-22T09:22:31.295Z,26.15
2023-07-22T09:25:17.748Z,25.79
2023-07-22T09:27:48.136Z,26.32
2023-07-22T09:30:31.976Z,26.63
2023-07-22T09:33:04.031Z,26.23
2023-07-22T09:35:36.037Z,26.41
2023-07-22T09:38:06.264Z,26.66
2023-07-22T09:40:36.410Z,26.29
2023-07-22T09:43:07.884Z,25.90
2023-07-22T09:45:41.708Z,26.11
2023-07-22T09:48:13.864Z,26.27
2023-07-22T09:50:44.232Z,27.01
2023-07-22T09:53:19.717Z,27.14
2023-07-22T09:55:49.905Z,26.54
2023-07-22T09:58:20.161Z,26.44
2023-07-22T10:00:54.580Z,26.52
2023-07-22T10:03:27.946Z,26.48
2023-07-22T10:05:58.433Z,27.02
2023-07-22T10:08:28.709Z,26.57
2023-07-22T10:11:01.816Z,26.86
2023-07-22T10:13:31.675Z,27.10
2023-07-22T10:16:04.960Z,26.89
2023-07-22T10:18:38.641Z,27.00
2023-07-22T10:21:09.356Z,27.20
2023-07-22T10:23:40.873Z,26.97
2023-07-22T10:26:12.730Z,26.97
2023-07-22T10:28:43.541Z,27.26
2023-07-22T10:31:19.950Z,27.15
2023-07-22T10:33:51.036Z,27.01
2023-07-22T10:36:21.657Z,26.85
2023-07-22T10:39:04.058Z,27.09
2023-07-22T10:41:34.684Z,26.96
2023-07-22T10:44:05.832Z,27.15
2023-07-22T10:46:41.746Z,27.10
2023-07-22T10:49:15.091Z,26.79
2023-07-22T10:51:45.453Z,27.27
2023-07-22T10:54:16.603Z,26.41
2023-07-22T10:56:47.875Z,27.13
2023-07-22T10:59:18.059Z,27.70
2023-07-22T11:01:52.433Z,27.71
2023-07-22T11:04:39.971Z,27.40
2023-07-22T11:07:35.322Z,27.45
2023-07-22T11:10:22.361Z,27.57
2023-07-22T11:12:52.616Z,27.70
2023-07-22T11:15:24.270Z,27.17
2023-07-22T11:17:58.555Z,26.82
2023-07-22T11:20:28.773Z,26.72
2023-07-22T11:22:58.957Z,26.37
2023-07-22T11:25:30.895Z,26.89
2023-07-22T11:28:02.250Z,26.67
2023-07-22T11:30:32.656Z,26.41
2023-07-22T11:33:05.558Z,27.13
2023-07-22T11:35:35.862Z,27.41
2023-07-22T11:38:06.944Z,26.66
2023-07-22T11:40:38.180Z,27.54
2023-07-22T11:43:09.040Z,27.04
2023-07-22T11:45:43.055Z,27.34
2023-07-22T11:48:16.828Z,27.10
2023-07-22T11:50:47.038Z,27.82
2023-07-22T11:53:17.501Z,27.83
2023-07-22T11:55:48.409Z,27.36
2023-07-22T11:58:18.585Z,27.64
2023-07-22T12:01:04.232Z,28.30
2023-07-22T12:03:38.547Z,27.60
2023-07-22T12:06:10.595Z,27.75
2023-07-22T12:08:42.242Z,27.28
2023-07-22T12:11:20.351Z,27.37
2023-07-22T12:13:51.852Z,27.04
2023-07-22T12:16:27.931Z,27.38
2023-07-22T12:19:01.462Z,27.48
2023-07-22T12:21:32.677Z,27.70
2023-07-22T12:24:02.916Z,27.97
2023-07-22T12:26:33.063Z,26.99
2023-07-22T12:29:04.688Z,27.47
2023-07-22T12:31:34.988Z,27.88
2023-07-22T12:34:07.994Z,27.79
2023-07-22T12:36:37.824Z,28.01
2023-07-22T12:39:08.181Z,27.68
2023-07-22T12:41:38.471Z,28.10
2023-07-22T12:44:08.861Z,27.95
2023-07-22T12:46:38.940Z,27.25
2023-07-22T12:49:11.693Z,28.06
2023-07-22T12:51:41.889Z,28.15
2023-07-22T12:54:12.180Z,27.96
2023-07-22T12:56:44.108Z,28.01
2023-07-22T12:59:14.292Z,27.68
2023-07-22T13:01:44.534Z,27.96
2023-07-22T13:04:17.395Z,28.10
2023-07-22T13:06:47.536Z,28.17
2023-07-22T13:09:17.692Z,27.67
2023-07-22T13:11:48.036Z,28.38
2023-07-22T13:14:19.825Z,28.04
2023-07-22T13:16:50.051Z,28.29
2023-07-22T13:19:22.754Z,28.30
2023-07-22T13:21:52.890Z,27.91
2023-07-22T13:24:23.130Z,27.92
2023-07-22T13:26:53.311Z,27.63
2023-07-22T13:29:23.518Z,27.65
2023-07-22T13:31:53.703Z,27.40
2023-07-22T13:34:26.915Z,27.46
2023-07-22T13:36:56.996Z,28.11
2023-07-22T13:39:27.253Z,28.24
2023-07-22T13:41:57.524Z,27.70
2023-07-22T13:44:27.833Z,27.60
2023-07-22T13:46:58.007Z,27.34
2023-07-22T13:49:30.862Z,27.68
2023-07-22T13:52:01.099Z,27.59
2023-07-22T13:54:31.257Z,27.44
2023-07-22T13:57:01.439Z,28.03
2023-07-22T13:59:31.571Z,27.66
2023-07-22T14:02:01.702Z,27.70
2023-07-22T14:04:34.455Z,27.54
2023-07-22T14:07:04.589Z,27.68
2023-07-22T14:09:34.867Z,27.97
2023-07-22T14:12:04.988Z,27.82
2023-07-22T14:14:36.071Z,28.13
2023-07-22T14:17:06.295Z,28.17
2023-07-22T14:19:39.041Z,27.74
2023-07-22T14:22:09.682Z,27.56
2023-07-22T14:24:39.788Z,27.48
2023-07-22T14:27:10.774Z,27.33
2023-07-22T14:29:40.997Z,27.61
2023-07-22T14:32:13.038Z,27.32
2023-07-22T14:34:45.845Z,27.80
2023-07-22T14:37:15.977Z,28.22
2023-07-22T14:39:47.680Z,27.94
2023-07-22T14:42:17.832Z,28.06
2023-07-22T14:44:47.985Z,28.26
2023-07-22T14:47:18.217Z,28.14
2023-07-22T14:49:53.263Z,28.32
2023-07-22T14:52:24.076Z,28.42
2023-07-22T14:54:54.388Z,28.50
2023-07-22T14:57:27.924Z,28.19
2023-07-22T14:59:58.102Z,27.94
2023-07-22T15:02:28.308Z,27.39
2023-07-22T15:05:01.147Z,27.57
2023-07-22T15:07:32.271Z,27.68
2023-07-22T15:10:03.560Z,27.89
2023-07-22T15:12:33.672Z,27.70
2023-07-22T15:15:03.973Z,27.35
2023-07-22T15:17:35.228Z,27.50
2023-07-22T15:20:09.279Z,27.60
2023-07-22T15:22:39.449Z,27.94
2023-07-22T15:25:10.562Z,27.41
2023-07-22T15:27:40.767Z,27.13
2023-07-22T15:30:12.198Z,27.04
2023-07-22T15:32:44.096Z,27.14
2023-07-22T15:35:16.913Z,26.92
2023-07-22T15:37:47.006Z,26.55
2023-07-22T15:40:17.469Z,26.69
2023-07-22T15:42:47.593Z,26.60
2023-07-22T15:45:18.156Z,26.65
2023-07-22T15:47:49.003Z,26.58
2023-07-22T15:50:22.041Z,26.57
2023-07-22T15:52:51.833Z,26.25
2023-07-22T15:55:22.746Z,26.24
2023-07-22T15:57:53.075Z,26.40
2023-07-22T16:00:23.965Z,26.24
2023-07-22T16:02:54.411Z,26.15
2023-07-22T16:05:27.363Z,26.01
2023-07-22T16:07:57.538Z,25.85
2023-07-22T16:10:29.292Z,25.91
2023-07-22T16:12:59.532Z,25.74
2023-07-22T16:15:32.553Z,25.73
2023-07-22T16:18:02.933Z,25.84
2023-07-22T16:20:35.836Z,25.66
2023-07-22T16:23:06.056Z,25.54
2023-07-22T16:25:36.285Z,25.50
2023-07-22T16:28:06.710Z,25.36
2023-07-22T16:30:38.571Z,25.31
2023-07-22T16:33:08.794Z,25.15
2023-07-22T16:35:41.538Z,25.38
2023-07-22T16:38:11.671Z,25.07
2023-07-22T16:40:41.911Z,24.99
2023-07-22T16:43:12.490Z,24.98
2023-07-22T16:45:42.879Z,24.94
2023-07-22T16:48:13.034Z,24.98
2023-07-22T16:50:45.777Z,24.80
2023-07-22T16:53:15.957Z,24.90
2023-07-22T16:55:46.261Z,24.95
2023-07-22T16:58:16.473Z,24.85
2023-07-22T17:00:48.952Z,24.88
2023-07-22T17:03:19.601Z,24.68
2023-07-22T17:05:52.730Z,24.58
2023-07-22T17:08:22.990Z,24.41
2023-07-22T17:10:53.240Z,24.41
2023-07-22T17:13:23.427Z,24.34
2023-07-22T17:15:53.807Z,24.23
2023-07-22T17:18:24.051Z,24.19
2023-07-22T17:20:56.951Z,24.17
2023-07-22T17:23:27.189Z,24.14
2023-07-22T17:25:57.336Z,24.09
2023-07-22T17:28:27.628Z,24.11
2023-07-22T17:31:03.117Z,24.10
2023-07-22T17:33:35.290Z,23.96
2023-07-22T17:36:08.328Z,23.97
2023-07-22T17:38:38.444Z,24.01
2023-07-22T17:41:08.536Z,23.98
2023-07-22T17:43:39.822Z,23.91
2023-07-22T17:46:10.032Z,23.94
2023-07-22T17:48:40.155Z,23.83
2023-07-22T17:51:12.919Z,23.81
2023-07-22T17:53:43.217Z,23.75
2023-07-22T17:56:13.370Z,23.72
2023-07-22T17:58:43.544Z,23.62
2023-07-22T18:01:13.981Z,23.60
2023-07-22T18:03:44.086Z,23.60
2023-07-22T18:06:18.943Z,23.71
2023-07-22T18:08:49.155Z,23.55
2023-07-22T18:11:19.640Z,23.54
2023-07-22T18:13:51.651Z,23.54
2023-07-22T18:16:24.506Z,23.55
2023-07-22T18:18:55.603Z,23.41
2023-07-22T18:21:28.759Z,23.42
2023-07-22T18:24:00.007Z,23.33
2023-07-22T18:26:30.300Z,23.36
2023-07-22T18:29:00.885Z,23.31
2023-07-22T18:31:31.352Z,23.24
2023-07-22T18:34:01.800Z,23.19
2023-07-22T18:36:34.577Z,23.13
2023-07-22T18:39:05.255Z,23.11
2023-07-22T18:41:35.467Z,23.02
2023-07-22T18:44:05.821Z,23.00
2023-07-22T18:46:36.260Z,22.92
2023-07-22T18:49:06.655Z,22.95
2023-07-22T18:51:39.382Z,22.83
2023-07-22T18:54:09.456Z,22.84
2023-07-22T18:56:42.421Z,22.81
2023-07-22T18:59:12.603Z,22.73
2023-07-22T19:01:45.298Z,22.74
2023-07-22T19:04:15.586Z,22.74
2023-07-22T19:06:48.413Z,22.66
2023-07-22T19:09:18.711Z,22.69
2023-07-22T19:11:48.929Z,22.59
2023-07-22T19:14:19.378Z,22.54
2023-07-22T19:16:55.946Z,22.46
2023-07-22T19:19:27.050Z,22.55
2023-07-22T19:21:59.844Z,22.53
2023-07-22T19:24:29.979Z,22.44
2023-07-22T19:27:02.278Z,22.35
2023-07-22T19:29:33.390Z,22.38
2023-07-22T19:32:03.784Z,22.38
2023-07-22T19:34:34.101Z,22.33
2023-07-22T19:37:07.700Z,22.34
2023-07-22T19:39:37.938Z,22.27
2023-07-22T19:42:08.613Z,22.27
2023-07-22T19:44:38.919Z,22.23
2023-07-22T19:47:09.282Z,22.18
2023-07-22T19:49:43.050Z,22.11
2023-07-22T19:52:16.056Z,22.09
2023-07-22T19:54:46.888Z,22.04
2023-07-22T19:57:17.068Z,21.96
2023-07-22T19:59:47.212Z,21.94
2023-07-22T20:02:17.538Z,21.83
2023-07-22T20:04:48.440Z,21.84
2023-07-22T20:07:21.277Z,21.84
2023-07-22T20:09:53.162Z,21.82
2023-07-22T20:12:23.281Z,21.79
2023-07-22T20:14:53.433Z,21.89
2023-07-22T20:17:23.752Z,21.95
2023-07-22T20:19:53.977Z,21.97
2023-07-22T20:22:26.720Z,21.85
2023-07-22T20:24:56.878Z,21.88
2023-07-22T20:27:27.073Z,21.81
2023-07-22T20:29:57.659Z,21.77
2023-07-22T20:32:30.072Z,21.73
2023-07-22T20:35:02.064Z,21.63
2023-07-22T20:37:34.865Z,21.56
2023-07-22T20:40:05.307Z,21.59
2023-07-22T20:42:37.567Z,21.57
2023-07-22T20:45:08.549Z,21.44
2023-07-22T20:47:39.107Z,21.43
2023-07-22T20:50:12.125Z,21.40
2023-07-22T20:52:47.751Z,21.31
2023-07-22T20:55:17.869Z,21.15
2023-07-22T20:57:48.095Z,21.08
2023-07-22T21:00:19.088Z,21.11
2023-07-22T21:02:49.348Z,21.07
2023-07-22T21:05:19.761Z,21.05
2023-07-22T21:07:52.698Z,20.82
2023-07-22T21:10:23.012Z,20.89
2023-07-22T21:12:53.165Z,20.81
2023-07-22T21:15:23.683Z,20.70
2023-07-22T21:17:53.930Z,20.62
2023-07-22T21:20:24.102Z,20.67
2023-07-22T21:22:56.914Z,20.52
2023-07-22T21:25:27.081Z,20.51
2023-07-22T21:27:57.204Z,20.43
2023-07-22T21:30:27.667Z,20.41
2023-07-22T21:32:57.931Z,20.28
2023-07-22T21:35:28.201Z,20.38
2023-07-22T21:38:01.477Z,20.33
2023-07-22T21:40:33.465Z,20.29
2023-07-22T21:43:04.011Z,20.29
2023-07-22T21:45:34.540Z,20.24
2023-07-22T21:48:04.786Z,20.23
2023-07-22T21:50:35.994Z,20.25
2023-07-22T21:53:08.814Z,20.08
2023-07-22T21:55:39.148Z,20.03
2023-07-22T21:58:09.535Z,20.20
2023-07-22T22:00:40.659Z,20.21
2023-07-22T22:03:15.218Z,20.21
2023-07-22T22:05:45.653Z,20.18
2023-07-22T22:08:19.307Z,20.10
2023-07-22T22:10:51.126Z,20.11
2023-07-22T22:13:21.256Z,20.11
2023-07-22T22:15:51.569Z,20.11
2023-07-22T22:18:21.887Z,20.09
2023-07-22T22:20:52.446Z,20.10
2023-07-22T22:23:25.347Z,20.05
2023-07-22T22:25:55.442Z,20.11
2023-07-22T22:28:25.578Z,20.06
2023-07-22T22:30:56.000Z,20.08
2023-07-22T22:33:26.382Z,20.12
2023-07-22T22:35:56.744Z,20.14
2023-07-22T22:38:29.644Z,20.15
2023-07-22T22:40:59.830Z,20.18
2023-07-22T22:43:30.357Z,20.10
2023-07-22T22:46:00.562Z,20.13
2023-07-22T22:48:30.821Z,20.11
2023-07-22T22:51:00.934Z,20.13
2023-07-22T22:53:33.652Z,20.09
2023-07-22T22:56:07.750Z,20.11
2023-07-22T22:58:37.887Z,20.02
2023-07-22T23:01:15.447Z,20.06
2023-07-22T23:03:45.881Z,19.97
2023-07-22T23:06:16.486Z,19.97
2023-07-22T23:08:49.656Z,19.99
2023-07-22T23:11:23.366Z,19.97
2023-07-22T23:13:54.869Z,19.98
2023-07-22T23:16:27.379Z,19.95
2023-07-22T23:18:57.494Z,19.88
2023-07-22T23:21:27.982Z,19.90
2023-07-22T23:24:02.167Z,19.88
2023-07-22T23:26:32.890Z,19.77
2023-07-22T23:29:03.013Z,19.81
2023-07-22T23:31:33.371Z,19.67
2023-07-22T23:34:03.544Z,19.71
2023-07-22T23:36:35.690Z,19.55
2023-07-22T23:39:08.512Z,19.61
2023-07-22T23:41:38.779Z,19.50
2023-07-22T23:44:09.004Z,19.44
2023-07-22T23:46:39.288Z,19.45
2023-07-22T23:49:09.416Z,19.39
2023-07-22T23:51:39.503Z,19.38
2023-07-22T23:54:12.232Z,19.28
2023-07-22T23:56:42.395Z,19.31
2023-07-22T23:59:12.622Z,19.24
